Time;durP1;ratioP1;P1;durP2;ratioP2;P2;SDS_P1;SDS_P2;PMS_P1;PMS_P2;Temp;Humidity;BMP_temperature;BMP_pressure;BME280_temperature;BME280_humidity;BME280_pressure;Samples;Min_cycle;Max_cycle;Signal;HPM_P1;HPM_P2
2023/04/10 00:01:49;;;;;;;8.65;4.63;;;11.60;54.60;;;;;;5112763;28;20019;-73
2023/04/10 00:04:15;;;;;;;7.75;4.35;;;11.60;54.50;;;;;;5113038;28;20579;-73
2023/04/10 00:06:41;;;;;;;7.10;3.90;;;11.60;54.30;;;;;;5113010;28;20211;-73
2023/04/10 00:09:07;;;;;;;6.82;3.30;;;11.60;54.20;;;;;;5112834;28;20019;-73
2023/04/10 00:11:33;;;;;;;7.45;4.10;;;11.60;53.90;;;;;;5112290;28;20034;-73
2023/04/10 00:13:59;;;;;;;5.88;3.50;;;11.60;53.80;;;;;;5112973;28;20016;-72
2023/04/10 00:16:25;;;;;;;6.82;3.65;;;11.50;53.60;;;;;;5094576;28;20027;-74
2023/04/10 00:18:51;;;;;;;6.45;3.30;;;11.50;53.50;;;;;;5112612;28;20088;-72
2023/04/10 00:21:17;;;;;;;6.47;2.97;;;11.50;53.50;;;;;;5112781;28;20061;-74
2023/04/10 00:23:42;;;;;;;5.75;2.97;;;11.50;53.40;;;;;;5112737;28;20066;-72
2023/04/10 00:26:09;;;;;;;7.10;3.33;;;11.50;53.10;;;;;;5112807;28;20427;-72
2023/04/10 00:28:37;;;;;;;5.13;2.75;;;11.50;53.30;;;;;;5112728;28;20032;-73
2023/04/10 00:31:06;;;;;;;4.65;2.72;;;11.50;53.20;;;;;;5112426;28;20055;-74
2023/04/10 00:33:31;;;;;;;5.57;2.60;;;11.50;53.20;;;;;;5111240;28;20027;-73
2023/04/10 00:35:57;;;;;;;7.50;2.67;;;11.50;53.10;;;;;;5112975;28;20077;-76
2023/04/10 00:38:23;;;;;;;5.18;2.60;;;11.40;53.10;;;;;;5094228;28;20496;-72
2023/04/10 00:40:48;;;;;;;5.60;2.75;;;11.40;53.20;;;;;;5112555;28;20024;-72
2023/04/10 00:43:15;;;;;;;4.55;2.83;;;11.40;53.10;;;;;;5112151;28;20055;-72
2023/04/10 00:45:41;;;;;;;5.93;2.47;;;11.30;53.20;;;;;;5112682;28;20479;-72
2023/04/10 00:48:07;;;;;;;5.55;2.55;;;11.30;53.10;;;;;;5112288;28;20126;-72
2023/04/10 00:50:33;;;;;;;5.20;2.90;;;11.20;53.20;;;;;;5112523;28;20500;-71
2023/04/10 00:52:58;;;;;;;4.97;2.78;;;11.20;53.30;;;;;;5112162;28;20027;-73
2023/04/10 00:55:25;;;;;;;4.97;2.80;;;11.20;53.50;;;;;;5111856;28;20476;-72
2023/04/10 00:57:51;;;;;;;5.15;2.80;;;11.10;53.50;;;;;;5113312;28;20089;-71
2023/04/10 01:00:17;;;;;;;5.20;2.78;;;11.20;53.60;;;;;;5112111;28;20472;-73
2023/04/10 01:02:43;;;;;;;5.10;2.53;;;11.10;53.00;;;;;;5111929;28;20477;-73
2023/04/10 01:05:11;;;;;;;4.15;2.50;;;11.10;53.20;;;;;;5112127;28;20095;-72
2023/04/10 01:07:39;;;;;;;3.97;2.40;;;11.10;53.00;;;;;;5112315;28;20392;-72
2023/04/10 01:10:19;;;;;;;4.15;2.35;;;11.10;53.00;;;;;;5095465;28;20138;-73
2023/04/10 01:12:57;;;;;;;4.47;2.67;;;11.10;53.10;;;;;;5096686;28;20026;-73
2023/04/10 01:15:25;;;;;;;4.03;2.20;;;11.00;53.00;;;;;;5114267;28;20027;-74
2023/04/10 01:17:57;;;;;;;4.15;2.50;;;11.00;53.60;;;;;;5117141;28;20020;-74
2023/04/10 01:20:31;;;;;;;7.47;3.55;;;11.00;53.10;;;;;;5117534;28;20099;-74
2023/04/10 01:23:45;;;;;;;4.22;2.63;;;10.90;53.20;;;;;;5112179;28;20031;-72
2023/04/10 01:26:16;;;;;;;4.93;2.60;;;10.90;53.20;;;;;;5097909;28;20407;-74
2023/04/10 01:28:52;;;;;;;3.75;2.47;;;10.80;53.20;;;;;;5115656;28;20034;-73
2023/04/10 01:31:28;;;;;;;4.63;2.30;;;10.80;53.20;;;;;;5115828;28;20020;-74
2023/04/10 01:34:01;;;;;;;6.25;2.97;;;10.80;53.40;;;;;;5115626;28;20117;-72
2023/04/10 01:36:31;;;;;;;4.70;2.70;;;10.80;53.60;;;;;;5115466;28;20435;-73
2023/04/10 01:38:57;;;;;;;6.18;2.97;;;10.80;53.60;;;;;;5115555;28;20058;-73
2023/04/10 01:41:25;;;;;;;5.32;2.50;;;10.80;53.60;;;;;;5115533;28;20023;-72
2023/04/10 01:43:53;;;;;;;4.10;2.45;;;10.80;53.60;;;;;;5115515;28;20028;-74
2023/04/10 01:46:20;;;;;;;5.00;2.70;;;10.80;53.60;;;;;;5097160;28;20023;-72
2023/04/10 01:48:48;;;;;;;4.50;2.78;;;10.70;53.70;;;;;;5115179;28;20051;-71
2023/04/10 01:51:15;;;;;;;4.88;2.40;;;10.70;53.70;;;;;;5114931;28;20098;-71
2023/04/10 01:53:44;;;;;;;3.95;2.33;;;10.70;53.80;;;;;;5115350;28;20054;-72
2023/04/10 01:56:11;;;;;;;3.97;2.33;;;10.70;53.70;;;;;;5115056;28;20020;-71
2023/04/10 01:58:37;;;;;;;3.88;2.30;;;10.70;53.80;;;;;;5115378;28;20031;-72
2023/04/10 02:01:03;;;;;;;4.70;2.40;;;10.70;54.30;;;;;;5114926;28;20019;-72
2023/04/10 02:03:29;;;;;;;3.63;2.38;;;10.70;53.70;;;;;;5115072;28;20393;-72
2023/04/10 02:06:13;;;;;;;4.43;2.60;;;10.70;54.00;;;;;;5114956;28;20031;-71
2023/04/10 02:08:57;;;;;;;4.93;2.50;;;10.70;54.10;;;;;;5114732;28;20039;-71
2023/04/10 02:11:42;;;;;;;3.75;2.28;;;10.70;53.90;;;;;;5117871;28;20475;-71
2023/04/10 02:14:10;;;;;;;5.50;2.50;;;10.70;53.70;;;;;;5116323;28;20513;-73
2023/04/10 02:16:38;;;;;;;4.22;2.33;;;10.70;53.90;;;;;;5117823;28;20135;-72
2023/04/10 02:19:05;;;;;;;5.07;2.75;;;10.70;54.10;;;;;;5117903;28;20102;-73
2023/04/10 02:21:32;;;;;;;4.95;2.92;;;10.70;54.20;;;;;;5116418;28;20024;-72
2023/04/10 02:23:59;;;;;;;5.10;2.67;;;10.80;54.30;;;;;;5115182;28;20024;-71
2023/04/10 02:26:24;;;;;;;4.18;2.47;;;10.80;54.00;;;;;;5115252;28;20023;-72
2023/04/10 02:28:50;;;;;;;4.05;2.33;;;10.80;53.90;;;;;;5114210;28;20373;-72
2023/04/10 02:31:16;;;;;;;3.67;2.30;;;10.80;53.80;;;;;;5114405;28;20445;-71
2023/04/10 02:33:42;;;;;;;4.28;2.50;;;10.80;53.70;;;;;;5114280;28;20133;-72
2023/04/10 02:36:08;;;;;;;5.75;3.20;;;10.80;53.90;;;;;;5114409;28;20035;-71
2023/04/10 02:38:34;;;;;;;4.30;2.55;;;10.80;53.80;;;;;;5114437;28;20024;-72
2023/04/10 02:40:59;;;;;;;5.13;3.20;;;10.70;53.50;;;;;;5113917;28;20031;-72
2023/04/10 02:43:25;;;;;;;6.45;3.00;;;10.80;53.90;;;;;;5114016;28;20482;-71
2023/04/10 02:45:51;;;;;;;5.90;3.33;;;10.80;53.80;;;;;;5114123;28;20028;-73
2023/04/10 02:48:17;;;;;;;7.35;3.17;;;10.80;53.90;;;;;;5095533;28;20104;-71
2023/04/10 02:50:45;;;;;;;6.20;3.50;;;10.80;53.60;;;;;;5113897;28;20019;-73
2023/04/10 02:53:14;;;;;;;7.53;4.00;;;10.90;54.00;;;;;;5113953;28;20034;-72
2023/04/10 02:55:39;;;;;;;6.50;3.70;;;10.90;53.90;;;;;;5113880;28;20015;-71
2023/04/10 02:58:05;;;;;;;8.27;3.63;;;10.90;53.90;;;;;;5095102;28;20388;-72
2023/04/10 03:00:30;;;;;;;8.98;4.18;;;10.90;53.70;;;;;;5113662;28;20469;-72
2023/04/10 03:02:56;;;;;;;8.52;4.50;;;10.90;53.80;;;;;;5095365;28;20027;-72
2023/04/10 03:05:22;;;;;;;7.95;4.70;;;10.90;53.80;;;;;;5095153;28;20032;-71
2023/04/10 03:07:47;;;;;;;9.57;5.10;;;10.90;53.70;;;;;;5113648;28;20114;-72
2023/04/10 03:10:13;;;;;;;6.72;4.50;;;10.90;53.90;;;;;;5095033;28;20031;-72
2023/04/10 03:12:39;;;;;;;7.22;4.20;;;10.80;53.40;;;;;;5113381;28;20030;-72
2023/04/10 03:15:06;;;;;;;6.57;4.30;;;10.90;54.00;;;;;;5113335;28;20489;-71
2023/04/10 03:17:32;;;;;;;8.90;4.47;;;10.80;53.80;;;;;;5113163;28;20035;-72
2023/04/10 03:19:57;;;;;;;8.30;4.05;;;10.80;53.80;;;;;;5113456;28;20016;-73
2023/04/10 03:22:23;;;;;;;6.95;3.97;;;10.80;53.80;;;;;;5094942;28;20031;-72
2023/04/10 03:24:49;;;;;;;7.00;4.03;;;10.80;53.90;;;;;;5114489;28;20118;-72
2023/04/10 03:27:16;;;;;;;6.95;4.10;;;10.80;54.10;;;;;;5094845;28;20500;-72
2023/04/10 03:29:42;;;;;;;6.55;3.22;;;10.80;54.10;;;;;;5113777;28;20474;-71
2023/04/10 03:32:08;;;;;;;6.13;3.08;;;10.80;54.00;;;;;;5113409;28;20024;-73
2023/04/10 03:34:34;;;;;;;8.65;3.80;;;10.80;54.70;;;;;;5113373;28;20028;-72
2023/04/10 03:36:59;;;;;;;4.28;2.63;;;10.70;53.90;;;;;;5113612;28;20024;-71
2023/04/10 03:39:25;;;;;;;5.13;2.80;;;10.70;53.60;;;;;;5113681;28;20026;-73
2023/04/10 03:41:51;;;;;;;5.70;2.95;;;10.60;54.20;;;;;;5115134;28;20019;-74
2023/04/10 03:44:17;;;;;;;4.38;2.72;;;10.60;54.00;;;;;;5115497;28;20384;-72
2023/04/10 03:46:42;;;;;;;4.72;2.72;;;10.50;53.80;;;;;;5112970;28;20032;-73
2023/04/10 03:49:08;;;;;;;4.75;2.78;;;10.40;53.90;;;;;;5112767;28;20096;-73
2023/04/10 03:51:34;;;;;;;5.38;2.72;;;10.40;54.10;;;;;;5113379;28;20126;-70
2023/04/10 03:54:00;;;;;;;4.53;2.50;;;10.40;54.20;;;;;;5112942;28;20035;-72
2023/04/10 03:56:25;;;;;;;4.53;2.60;;;10.40;54.40;;;;;;5112732;28;20024;-73
2023/04/10 03:58:51;;;;;;;5.28;2.70;;;10.30;54.20;;;;;;5094230;28;20027;-72
2023/04/10 04:01:17;;;;;;;3.95;2.33;;;10.20;54.20;;;;;;5094234;28;20085;-72
2023/04/10 04:03:42;;;;;;;5.85;2.45;;;10.20;54.50;;;;;;5112657;28;20034;-71
2023/04/10 04:06:08;;;;;;;5.22;2.92;;;10.10;54.40;;;;;;5112942;28;20023;-72
2023/04/10 04:08:35;;;;;;;4.68;2.70;;;10.10;54.40;;;;;;5112523;28;20504;-72
2023/04/10 04:11:01;;;;;;;5.68;2.60;;;10.10;54.60;;;;;;5094270;28;20020;-73
2023/04/10 04:13:26;;;;;;;4.90;2.50;;;10.10;54.60;;;;;;5112598;28;20055;-72
2023/04/10 04:15:52;;;;;;;6.05;3.00;;;10.10;54.50;;;;;;5112652;28;20092;-72
2023/04/10 04:18:18;;;;;;;4.25;2.50;;;10.00;54.50;;;;;;5112387;28;20046;-72
2023/04/10 04:20:43;;;;;;;4.63;2.80;;;10.10;54.70;;;;;;5112575;28;20395;-72
2023/04/10 04:23:09;;;;;;;5.32;3.13;;;10.10;54.70;;;;;;5112533;28;20369;-72
2023/04/10 04:25:35;;;;;;;5.47;3.10;;;10.10;54.70;;;;;;5112275;28;20483;-71
2023/04/10 04:28:00;;;;;;;6.85;3.78;;;10.10;54.60;;;;;;5112196;28;20073;-72
2023/04/10 04:30:26;;;;;;;7.68;4.78;;;10.10;54.70;;;;;;5112278;28;20043;-71
2023/04/10 04:32:52;;;;;;;7.18;4.00;;;10.00;54.90;;;;;;5111981;28;20093;-71
2023/04/10 04:35:17;;;;;;;8.05;4.00;;;10.00;54.60;;;;;;5112303;28;20030;-71
2023/04/10 04:37:43;;;;;;;7.03;4.07;;;10.00;54.70;;;;;;5112173;28;20023;-71
2023/04/10 04:40:09;;;;;;;7.40;4.13;;;10.00;55.10;;;;;;5112107;28;20404;-71
2023/04/10 04:42:36;;;;;;;8.93;4.32;;;9.90;55.90;;;;;;5112311;28;20032;-72
2023/04/10 04:45:01;;;;;;;7.18;4.70;;;9.90;56.20;;;;;;5111994;28;20496;-73
2023/04/10 04:47:27;;;;;;;8.15;4.38;;;10.00;55.30;;;;;;5111712;28;20048;-71
2023/04/10 04:49:53;;;;;;;8.75;5.18;;;10.00;55.20;;;;;;5093801;28;20080;-72
2023/04/10 04:52:18;;;;;;;8.63;4.95;;;9.90;56.30;;;;;;5112170;28;20027;-70
2023/04/10 04:54:44;;;;;;;10.35;5.05;;;9.90;56.30;;;;;;5111929;28;20027;-72
2023/04/10 04:57:10;;;;;;;7.90;4.97;;;9.90;56.50;;;;;;5093751;28;20015;-73
2023/04/10 04:59:37;;;;;;;9.65;5.57;;;10.00;55.40;;;;;;5114840;28;20023;-72
2023/04/10 05:02:02;;;;;;;10.18;4.88;;;10.10;55.50;;;;;;5116249;28;20024;-71
2023/04/10 05:04:28;;;;;;;8.15;4.53;;;10.00;55.10;;;;;;5116087;28;20035;-73
2023/04/10 05:06:54;;;;;;;8.25;4.70;;;10.00;55.10;;;;;;5115767;28;20023;-71
2023/04/10 05:09:19;;;;;;;9.13;4.43;;;10.00;55.80;;;;;;5097579;28;20031;-71
2023/04/10 05:11:45;;;;;;;8.68;4.75;;;10.00;55.10;;;;;;5115765;28;20028;-72
2023/04/10 05:14:11;;;;;;;6.13;3.67;;;10.00;55.20;;;;;;5116013;28;20303;-72
2023/04/10 05:16:36;;;;;;;8.32;4.22;;;10.00;55.10;;;;;;5115953;28;20098;-72
2023/04/10 05:19:02;;;;;;;6.30;3.70;;;10.00;54.90;;;;;;5115682;28;20441;-71
2023/04/10 05:21:28;;;;;;;5.25;3.17;;;10.10;55.50;;;;;;5115626;28;20047;-72
2023/04/10 05:23:53;;;;;;;6.57;3.72;;;10.10;55.20;;;;;;5115640;28;20456;-73
2023/04/10 05:26:19;;;;;;;6.20;3.17;;;10.20;55.20;;;;;;5115571;28;20508;-71
2023/04/10 05:28:45;;;;;;;7.50;3.45;;;10.30;55.10;;;;;;5097078;28;20035;-71
2023/04/10 05:31:11;;;;;;;4.90;3.17;;;10.30;54.60;;;;;;5115596;28;20027;-72
2023/04/10 05:33:36;;;;;;;7.45;3.33;;;10.40;54.70;;;;;;5115297;28;20024;-72
2023/04/10 05:36:02;;;;;;;5.78;2.70;;;10.40;54.40;;;;;;5115413;28;20065;-71
2023/04/10 05:38:28;;;;;;;6.05;2.67;;;10.50;54.40;;;;;;5115448;28;20075;-73
2023/04/10 05:40:54;;;;;;;4.18;2.40;;;10.50;54.20;;;;;;5115645;28;20038;-71
2023/04/10 05:43:20;;;;;;;3.97;2.30;;;10.60;54.00;;;;;;5097028;28;20060;-71
2023/04/10 05:45:46;;;;;;;5.10;2.38;;;10.60;53.70;;;;;;5115415;28;20177;-72
2023/04/10 05:48:12;;;;;;;4.57;2.50;;;10.70;53.70;;;;;;5115203;28;20057;-73
2023/04/10 05:50:37;;;;;;;3.80;2.28;;;10.80;53.60;;;;;;5115634;28;20455;-72
2023/04/10 05:53:03;;;;;;;4.32;2.50;;;10.90;53.40;;;;;;5115161;28;20039;-71
2023/04/10 05:55:32;;;;;;;4.07;2.45;;;11.00;53.30;;;;;;5114995;28;20023;-73
2023/04/10 05:57:58;;;;;;;4.78;2.97;;;11.10;53.00;;;;;;5114811;28;20111;-72
2023/04/10 06:00:24;;;;;;;4.82;2.67;;;11.20;52.70;;;;;;5115179;28;20102;-71
2023/04/10 06:02:49;;;;;;;4.05;2.38;;;11.30;52.40;;;;;;5115143;28;20367;-73
2023/04/10 06:05:15;;;;;;;4.28;2.50;;;11.50;52.40;;;;;;5096665;28;20024;-72
2023/04/10 06:07:41;;;;;;;4.63;2.85;;;11.60;52.00;;;;;;5114564;28;20535;-73
2023/04/10 06:10:09;;;;;;;5.65;3.05;;;11.70;52.00;;;;;;5114712;28;20020;-71
2023/04/10 06:12:35;;;;;;;6.00;3.30;;;11.80;51.90;;;;;;5114910;28;20024;-71
2023/04/10 06:15:00;;;;;;;7.00;3.63;;;11.80;51.90;;;;;;5114924;28;20087;-73
2023/04/10 06:17:27;;;;;;;9.50;3.20;;;11.90;52.00;;;;;;5114516;28;20370;-72
2023/04/10 06:19:53;;;;;;;6.95;3.63;;;11.90;52.00;;;;;;5114673;28;20039;-71
2023/04/10 06:22:18;;;;;;;5.63;3.40;;;12.00;51.70;;;;;;5114393;28;20019;-72
2023/04/10 06:24:44;;;;;;;7.32;3.55;;;12.10;51.60;;;;;;5096258;28;20026;-72
2023/04/10 06:27:11;;;;;;;5.18;3.38;;;12.20;51.80;;;;;;5114375;28;20035;-71
2023/04/10 06:29:36;;;;;;;9.73;5.55;;;12.30;51.60;;;;;;5114634;28;20024;-72
2023/04/10 06:32:02;;;;;;;7.75;4.22;;;12.40;51.40;;;;;;5114508;28;20049;-73
2023/04/10 06:34:28;;;;;;;7.03;3.92;;;12.50;51.20;;;;;;5114200;28;20024;-71
2023/04/10 06:36:54;;;;;;;6.57;3.60;;;12.60;50.90;;;;;;5114271;28;20209;-72
2023/04/10 06:39:19;;;;;;;5.90;3.10;;;12.70;51.00;;;;;;5114577;28;20429;-72
2023/04/10 06:41:45;;;;;;;6.43;3.20;;;12.90;50.80;;;;;;5114207;28;20110;-73
2023/04/10 06:44:11;;;;;;;7.10;3.42;;;12.90;49.80;;;;;;5114399;28;20098;-72
2023/04/10 06:46:36;;;;;;;6.05;3.05;;;13.10;50.00;;;;;;5114249;28;20115;-73
2023/04/10 06:49:02;;;;;;;6.50;3.42;;;13.20;49.40;;;;;;5113598;28;20130;-73
2023/04/10 06:51:28;;;;;;;6.20;3.55;;;13.40;49.60;;;;;;5113953;28;20024;-72
2023/04/10 06:53:53;;;;;;;6.82;3.50;;;13.50;48.90;;;;;;5113937;28;20460;-74
2023/04/10 06:56:19;;;;;;;6.95;3.72;;;13.50;48.20;;;;;;5113988;28;20051;-72
2023/04/10 06:58:45;;;;;;;5.78;3.13;;;13.50;49.10;;;;;;5114221;28;20034;-72
2023/04/10 07:01:11;;;;;;;6.10;3.03;;;13.50;48.20;;;;;;5113752;28;20114;-71
2023/04/10 07:03:37;;;;;;;6.05;3.17;;;13.50;47.90;;;;;;5113893;28;20035;-73
2023/04/10 07:06:03;;;;;;;6.13;2.97;;;13.50;47.60;;;;;;5114350;28;20110;-73
2023/04/10 07:08:28;;;;;;;7.95;3.47;;;13.50;48.00;;;;;;5114047;28;20485;-73
2023/04/10 07:10:54;;;;;;;7.18;4.15;;;13.50;47.50;;;;;;5114014;28;20024;-73
2023/04/10 07:13:20;;;;;;;5.82;2.92;;;13.70;47.70;;;;;;5095492;28;20024;-73
2023/04/10 07:15:45;;;;;;;5.07;3.00;;;13.60;47.30;;;;;;5113964;28;20020;-72
2023/04/10 07:18:11;;;;;;;5.35;2.78;;;13.70;47.30;;;;;;5113615;28;20016;-72
2023/04/10 07:20:37;;;;;;;5.03;2.78;;;13.70;47.20;;;;;;5113281;28;20035;-73
2023/04/10 07:23:02;;;;;;;5.50;3.13;;;13.80;47.40;;;;;;5094713;28;20019;-73
2023/04/10 07:25:28;;;;;;;5.30;3.33;;;13.90;47.20;;;;;;5113577;28;20520;-71
2023/04/10 07:27:53;;;;;;;9.77;3.10;;;14.00;47.30;;;;;;5113250;28;20059;-71
2023/04/10 07:30:19;;;;;;;8.15;3.92;;;14.10;47.10;;;;;;5113323;28;20473;-72
2023/04/10 07:32:45;;;;;;;7.45;3.38;;;14.20;47.30;;;;;;5113363;28;20023;-72
2023/04/10 07:35:11;;;;;;;5.30;3.22;;;14.10;46.70;;;;;;5113358;28;20015;-71
2023/04/10 07:37:38;;;;;;;6.90;3.97;;;14.10;47.00;;;;;;5113195;28;20492;-71
2023/04/10 07:40:06;;;;;;;7.32;4.13;;;14.00;46.80;;;;;;5094893;28;20023;-73
2023/04/10 07:42:31;;;;;;;5.20;3.22;;;14.00;47.20;;;;;;5113098;28;20038;-71
2023/04/10 07:44:57;;;;;;;5.00;3.10;;;14.00;47.00;;;;;;5113039;28;20389;-72
2023/04/10 07:47:23;;;;;;;5.95;3.40;;;14.10;47.00;;;;;;5111557;28;20130;-73
2023/04/10 07:49:49;;;;;;;9.65;5.20;;;14.10;47.30;;;;;;5113231;28;20047;-72
2023/04/10 07:52:15;;;;;;;5.13;3.00;;;14.10;47.10;;;;;;5112921;28;20535;-70
2023/04/10 07:54:40;;;;;;;6.63;3.22;;;14.10;46.80;;;;;;5113707;28;20011;-72
2023/04/10 07:57:06;;;;;;;4.97;2.92;;;14.10;46.70;;;;;;5113707;28;20488;-73
2023/04/10 07:59:31;;;;;;;5.07;3.13;;;14.10;46.70;;;;;;5094672;28;20031;-72
2023/04/10 08:01:57;;;;;;;8.25;3.70;;;14.10;46.30;;;;;;5113194;28;20019;-72
2023/04/10 08:04:23;;;;;;;6.63;3.67;;;14.10;46.10;;;;;;5112807;28;20027;-71
2023/04/10 08:06:49;;;;;;;6.53;3.13;;;14.00;45.80;;;;;;5112680;28;20024;-72
2023/04/10 08:09:14;;;;;;;5.18;3.13;;;14.00;45.80;;;;;;5113008;28;20260;-72
2023/04/10 08:11:40;;;;;;;5.78;3.38;;;14.00;45.60;;;;;;5112536;28;20059;-71
2023/04/10 08:14:06;;;;;;;6.07;3.40;;;14.10;45.80;;;;;;5112596;28;20027;-72
2023/04/10 08:16:33;;;;;;;8.48;3.75;;;14.10;45.50;;;;;;5094238;28;20495;-73
2023/04/10 08:19:00;;;;;;;7.95;3.40;;;14.00;45.30;;;;;;5112263;28;20022;-72
2023/04/10 08:21:27;;;;;;;6.75;3.80;;;14.10;45.00;;;;;;5112419;28;20548;-73
2023/04/10 08:23:59;;;;;;;5.68;3.38;;;14.00;44.90;;;;;;5112474;28;20019;-71
2023/04/10 08:26:25;;;;;;;7.00;3.60;;;14.10;45.10;;;;;;5113472;28;20019;-73
2023/04/10 08:28:52;;;;;;;5.15;3.20;;;14.10;45.10;;;;;;5114250;28;20031;-72
2023/04/10 08:31:19;;;;;;;7.03;3.30;;;14.10;45.00;;;;;;5113502;28;20547;-72
2023/04/10 08:33:45;;;;;;;5.75;3.20;;;14.10;44.70;;;;;;5114273;28;20050;-72
2023/04/10 08:36:11;;;;;;;5.22;3.10;;;14.20;45.00;;;;;;5114342;28;20020;-73
2023/04/10 08:38:38;;;;;;;5.95;3.40;;;14.20;44.70;;;;;;5112979;28;20068;-72
2023/04/10 08:41:05;;;;;;;6.28;3.22;;;14.20;44.90;;;;;;5113632;28;20103;-71
2023/04/10 08:43:31;;;;;;;4.18;2.65;;;14.20;44.80;;;;;;5113168;28;20481;-73
2023/04/10 08:45:58;;;;;;;5.90;2.88;;;14.20;44.80;;;;;;5113319;28;20106;-73
2023/04/10 08:48:34;;;;;;;6.13;2.83;;;14.20;44.70;;;;;;5112428;28;20047;-71
2023/04/10 08:51:02;;;;;;;5.07;3.08;;;14.20;45.00;;;;;;5112441;28;20469;-72
2023/04/10 08:53:30;;;;;;;5.00;2.85;;;14.10;44.50;;;;;;5112390;28;20392;-71
2023/04/10 08:55:56;;;;;;;5.70;3.10;;;14.20;44.60;;;;;;5093746;28;20024;-73
2023/04/10 08:58:23;;;;;;;5.20;3.05;;;14.20;44.70;;;;;;5112045;28;20102;-73
2023/04/10 09:00:50;;;;;;;5.82;3.15;;;14.10;44.60;;;;;;5112144;28;20088;-72
2023/04/10 09:03:16;;;;;;;3.97;2.58;;;14.20;44.70;;;;;;5111868;28;20396;-72
2023/04/10 09:05:42;;;;;;;4.70;2.50;;;14.20;44.40;;;;;;5112102;28;20470;-74
2023/04/10 09:08:09;;;;;;;6.03;3.17;;;14.20;44.40;;;;;;5112352;28;20122;-74
2023/04/10 09:10:36;;;;;;;4.22;2.65;;;14.30;44.40;;;;;;5112402;28;20023;-72
2023/04/10 09:13:01;;;;;;;5.00;3.00;;;14.40;44.50;;;;;;5111859;28;20020;-73
2023/04/10 09:15:27;;;;;;;6.10;3.38;;;14.40;44.40;;;;;;5112209;28;20117;-72
2023/04/10 09:18:01;;;;;;;5.35;3.15;;;14.50;44.40;;;;;;5111883;28;20028;-73
2023/04/10 09:20:29;;;;;;;6.22;3.30;;;14.60;44.50;;;;;;5112221;28;20088;-71
2023/04/10 09:22:55;;;;;;;5.75;3.00;;;14.70;44.20;;;;;;5111843;28;20028;-73
2023/04/10 09:25:35;;;;;;;6.15;3.38;;;14.80;44.20;;;;;;5093598;28;20030;-71
2023/04/10 09:28:06;;;;;;;6.20;3.50;;;14.80;43.50;;;;;;5111659;28;20092;-72
2023/04/10 09:30:40;;;;;;;6.00;3.10;;;14.80;43.40;;;;;;5111992;28;20377;-71
2023/04/10 09:33:29;;;;;;;6.68;3.50;;;14.80;42.80;;;;;;5093697;28;20114;-71
2023/04/10 09:36:02;;;;;;;5.15;3.08;;;14.80;42.90;;;;;;5111629;28;20023;-71
2023/04/10 09:38:28;;;;;;;6.18;3.03;;;14.80;42.90;;;;;;5111737;28;20015;-71
2023/04/10 09:41:06;;;;;;;6.63;3.40;;;14.80;43.20;;;;;;5093802;28;20421;-72
2023/04/10 09:43:32;;;;;;;5.93;3.22;;;14.90;42.90;;;;;;5111662;28;20031;-71
2023/04/10 09:45:58;;;;;;;5.80;3.10;;;15.00;43.00;;;;;;5114496;28;20084;-72
2023/04/10 09:48:25;;;;;;;4.63;3.17;;;15.00;42.80;;;;;;5115344;28;20059;-71
2023/04/10 09:50:51;;;;;;;5.18;3.28;;;15.10;42.90;;;;;;5115584;28;20020;-71
2023/04/10 09:53:19;;;;;;;5.38;3.25;;;15.10;42.60;;;;;;5115402;28;20038;-71
2023/04/10 09:55:49;;;;;;;5.93;2.90;;;15.20;42.80;;;;;;5115406;28;20091;-73
2023/04/10 09:58:16;;;;;;;4.70;3.00;;;15.20;42.60;;;;;;5115229;28;20380;-72
2023/04/10 10:00:46;;;;;;;7.78;3.17;;;15.20;42.80;;;;;;5115232;28;20016;-72
2023/04/10 10:03:16;;;;;;;5.55;3.35;;;15.30;42.80;;;;;;5114908;28;20031;-70
2023/04/10 10:05:45;;;;;;;5.80;2.72;;;15.30;42.30;;;;;;5114884;28;20020;-72
2023/04/10 10:08:12;;;;;;;5.10;3.10;;;15.30;42.40;;;;;;5114893;28;20032;-72
2023/04/10 10:10:45;;;;;;;5.30;3.00;;;15.40;42.40;;;;;;5114858;28;20111;-72
2023/04/10 10:13:18;;;;;;;5.05;3.15;;;15.40;42.10;;;;;;5114804;28;20050;-71
2023/04/10 10:16:06;;;;;;;6.50;3.83;;;15.50;42.30;;;;;;5114844;28;20346;-71
2023/04/10 10:18:56;;;;;;;5.53;3.40;;;15.60;42.00;;;;;;5114677;28;20019;-71
2023/04/10 10:21:23;;;;;;;4.70;3.10;;;15.60;41.50;;;;;;5114530;28;20038;-72
2023/04/10 10:23:52;;;;;;;6.50;3.47;;;15.70;42.30;;;;;;5114302;28;20077;-71
2023/04/10 10:26:19;;;;;;;5.65;3.47;;;15.80;42.90;;;;;;5114519;28;20050;-72
2023/04/10 10:28:47;;;;;;;4.50;2.95;;;15.90;42.20;;;;;;5114506;28;20100;-73
2023/04/10 10:31:13;;;;;;;5.78;3.40;;;16.00;42.10;;;;;;5114348;28;20028;-72
2023/04/10 10:33:40;;;;;;;8.55;3.78;;;16.00;41.80;;;;;;5113121;28;20024;-72
2023/04/10 10:36:07;;;;;;;7.43;3.70;;;16.10;41.80;;;;;;5114722;28;20469;-71
2023/04/10 10:38:36;;;;;;;4.97;3.13;;;16.10;41.60;;;;;;5114460;28;20023;-72
2023/04/10 10:41:30;;;;;;;6.05;3.55;;;16.20;41.70;;;;;;5114485;28;20035;-71
2023/04/10 10:44:13;;;;;;;;;;;16.20;41.10;;;;;;5114668;28;20061;-72
2023/04/10 10:47:16;;;;;;;5.90;3.65;;;16.30;40.20;;;;;;5114139;28;19957;-72
2023/04/10 10:50:02;;;;;;;6.50;3.63;;;16.40;40.80;;;;;;5072104;28;20050;-71
2023/04/10 10:52:44;;;;;;;5.47;3.10;;;16.50;41.40;;;;;;5114192;28;20034;-71
2023/04/10 10:55:24;;;;;;;5.65;3.22;;;16.50;40.50;;;;;;5113952;28;20022;-72
2023/04/10 10:57:52;;;;;;;5.00;2.90;;;16.60;39.90;;;;;;5114268;28;20156;-72
2023/04/10 11:00:19;;;;;;;4.70;3.25;;;16.70;41.20;;;;;;5113901;28;20026;-72
2023/04/10 11:03:05;;;;;;;4.93;3.03;;;16.70;40.90;;;;;;5095401;28;20020;-71
2023/04/10 11:06:01;;;;;;;4.57;3.17;;;16.70;40.90;;;;;;5113791;28;20023;-72
2023/04/10 11:08:46;;;;;;;4.88;2.90;;;16.80;39.70;;;;;;5113891;28;20035;-71
2023/04/10 11:11:17;;;;;;;6.93;3.60;;;16.90;39.50;;;;;;5114085;28;20020;-71
2023/04/10 11:13:51;;;;;;;5.40;3.20;;;17.00;40.80;;;;;;5113561;28;20034;-72
2023/04/10 11:16:19;;;;;;;5.07;3.40;;;17.00;40.70;;;;;;5113450;28;20016;-72
2023/04/10 11:18:47;;;;;;;5.80;3.47;;;17.10;40.90;;;;;;5113679;28;20381;-71
2023/04/10 11:21:22;;;;;;;7.38;4.63;;;17.10;40.40;;;;;;5095157;28;20024;-71
2023/04/10 11:23:54;;;;;;;5.93;3.60;;;17.20;40.40;;;;;;5095149;28;20028;-72
2023/04/10 11:26:40;;;;;;;6.78;4.72;;;17.20;39.10;;;;;;5113316;28;20027;-72
2023/04/10 11:29:26;;;;;;;5.60;3.72;;;17.30;40.40;;;;;;5094970;28;20027;-71
2023/04/10 11:31:56;;;;;;;8.52;3.70;;;17.40;40.60;;;;;;5098983;28;20027;-71
2023/04/10 11:34:22;;;;;;;5.18;3.00;;;17.50;40.50;;;;;;5113333;28;20114;-71
2023/04/10 11:36:48;;;;;;;4.35;2.90;;;17.60;40.00;;;;;;5113200;28;20141;-72
2023/04/10 11:39:17;;;;;;;5.03;3.03;;;17.70;39.70;;;;;;5113474;28;20405;-70
2023/04/10 11:41:45;;;;;;;5.25;3.08;;;17.70;39.90;;;;;;5113311;28;20022;-72
2023/04/10 11:44:31;;;;;;;4.63;2.80;;;17.70;39.90;;;;;;5113367;28;20020;-71
2023/04/10 11:46:57;;;;;;;5.60;3.03;;;17.70;37.80;;;;;;5112889;28;20039;-71
2023/04/10 11:49:30;;;;;;;7.20;3.08;;;17.70;39.50;;;;;;5113027;28;20020;-72
2023/04/10 11:51:56;;;;;;;5.18;3.30;;;17.80;39.60;;;;;;5095009;28;20020;-72
2023/04/10 11:54:26;;;;;;;7.78;4.05;;;17.80;39.10;;;;;;5113189;28;20491;-72
2023/04/10 11:56:57;;;;;;;5.68;3.67;;;17.80;37.50;;;;;;5113130;28;20102;-71
2023/04/10 11:59:23;;;;;;;5.10;3.15;;;17.80;39.30;;;;;;5112730;28;20024;-72
2023/04/10 12:01:52;;;;;;;6.03;3.83;;;17.90;39.30;;;;;;5112868;28;20202;-72
2023/04/10 12:04:20;;;;;;;5.60;3.63;;;17.80;39.20;;;;;;5095074;28;20020;-73
2023/04/10 12:06:55;;;;;;;5.15;3.40;;;17.90;39.40;;;;;;5113127;28;20024;-71
2023/04/10 12:09:21;;;;;;;4.80;3.35;;;18.10;39.30;;;;;;5112565;28;20552;-71
2023/04/10 12:12:04;;;;;;;4.80;3.28;;;18.10;39.20;;;;;;5112709;28;20434;-71
2023/04/10 12:14:31;;;;;;;7.20;3.23;;;18.10;39.00;;;;;;5112712;28;20028;-73
2023/04/10 12:16:57;;;;;;;5.72;3.83;;;18.20;39.10;;;;;;5112910;28;20028;-72
2023/04/10 12:19:24;;;;;;;6.97;3.30;;;18.30;39.00;;;;;;5112746;28;20093;-72
2023/04/10 12:21:50;;;;;;;4.88;3.08;;;18.40;38.60;;;;;;5113238;28;20051;-72
2023/04/10 12:24:45;;;;;;;4.68;3.05;;;18.30;38.40;;;;;;5112877;28;20501;-71
2023/04/10 12:27:25;;;;;;;4.97;3.25;;;18.30;36.10;;;;;;5112529;28;20119;-71
2023/04/10 12:29:52;;;;;;;4.85;3.17;;;18.30;36.30;;;;;;5094119;28;20032;-71
2023/04/10 12:32:19;;;;;;;4.70;3.10;;;18.40;38.20;;;;;;5094203;28;20034;-71
2023/04/10 12:35:00;;;;;;;4.82;3.20;;;18.50;37.50;;;;;;5112524;28;20028;-73
2023/04/10 12:37:49;;;;;;;4.63;2.95;;;18.70;37.90;;;;;;5112389;28;20027;-72
2023/04/10 12:40:15;;;;;;;5.47;3.05;;;18.80;35.30;;;;;;5112098;28;20020;-72
2023/04/10 12:42:41;;;;;;;5.07;3.50;;;18.70;36.40;;;;;;5112382;28;20039;-71
2023/04/10 12:45:08;;;;;;;5.20;3.55;;;18.80;36.50;;;;;;5112283;28;20438;-71
2023/04/10 12:47:50;;;;;;;6.05;3.38;;;18.80;35.50;;;;;;5112157;28;20101;-72
2023/04/10 12:50:17;;;;;;;5.95;3.90;;;18.80;36.10;;;;;;5112271;28;20500;-71
2023/04/10 12:53:11;;;;;;;5.22;3.70;;;18.80;35.80;;;;;;5112015;28;20028;-71
2023/04/10 12:55:37;;;;;;;6.00;3.35;;;18.70;32.80;;;;;;5112371;28;20457;-71